createdAt,value
2022-08-10T00:01:53.813Z,13.29
2022-08-10T00:04:24.125Z,13.29
2022-08-10T00:06:54.545Z,13.26
2022-08-10T00:09:24.682Z,13.23
2022-08-10T00:11:52.717Z,13.21
2022-08-10T00:14:20.669Z,13.19
2022-08-10T00:16:48.640Z,13.17
2022-08-10T00:19:18.200Z,13.15
2022-08-10T00:21:47.385Z,13.14
2022-08-10T00:24:15.552Z,13.14
2022-08-10T00:27:51.709Z,13.15
2022-08-10T00:29:31.497Z,13.13
2022-08-10T00:31:59.750Z,13.10
2022-08-10T00:34:28.767Z,13.08
2022-08-10T00:36:57.240Z,13.07
2022-08-10T00:39:26.072Z,13.05
2022-08-10T00:42:07.129Z,13.02
2022-08-10T00:44:40.657Z,13.01
2022-08-10T00:47:17.492Z,12.99
2022-08-10T00:49:57.451Z,12.97
2022-08-10T00:52:27.243Z,12.95
2022-08-10T00:54:55.089Z,12.93
2022-08-10T00:57:23.005Z,12.93
2022-08-10T00:59:59.642Z,12.92
2022-08-10T01:02:30.823Z,12.91
2022-08-10T01:05:09.551Z,12.90
2022-08-10T01:07:58.919Z,12.90
2022-08-10T01:10:34.779Z,12.88
2022-08-10T01:13:38.515Z,12.85
2022-08-10T01:16:26.373Z,12.81
2022-08-10T01:19:34.306Z,12.80
2022-08-10T01:22:26.774Z,12.79
2022-08-10T01:24:54.445Z,12.79
2022-08-10T01:27:29.224Z,12.78
2022-08-10T01:30:06.982Z,12.78
2022-08-10T01:33:06.737Z,12.77
2022-08-10T01:35:44.138Z,12.76
2022-08-10T01:38:17.299Z,12.74
2022-08-10T01:40:55.329Z,12.73
2022-08-10T01:43:25.360Z,12.72
2022-08-10T01:45:56.181Z,12.71
2022-08-10T01:48:31.993Z,12.70
2022-08-10T01:51:25.765Z,12.69
2022-08-10T01:54:03.589Z,12.69
2022-08-10T01:56:33.861Z,12.67
2022-08-10T01:59:04.655Z,12.65
2022-08-10T02:01:39.689Z,12.63
2022-08-10T02:04:10.265Z,12.62
2022-08-10T02:06:43.659Z,12.59
2022-08-10T02:09:21.272Z,12.58
2022-08-10T02:12:05.338Z,12.56
2022-08-10T02:14:57.559Z,12.53
2022-08-10T02:18:00.699Z,12.51
2022-08-10T02:20:20.334Z,12.48
2022-08-10T02:22:52.834Z,12.46
2022-08-10T02:25:41.951Z,12.43
2022-08-10T02:28:12.428Z,12.42
2022-08-10T02:30:57.607Z,12.39
2022-08-10T02:33:27.826Z,12.38
2022-08-10T02:35:57.429Z,12.36
2022-08-10T02:38:59.062Z,12.35
2022-08-10T02:45:14.588Z,12.30
2022-08-10T02:45:20.484Z,12.32
2022-08-10T02:47:46.594Z,12.31
2022-08-10T02:50:29.668Z,12.29
2022-08-10T02:53:10.171Z,12.29
2022-08-10T02:56:03.312Z,12.29
2022-08-10T02:58:57.618Z,12.28
2022-08-10T03:01:31.912Z,12.27
2022-08-10T03:04:03.107Z,12.30
2022-08-10T03:06:35.360Z,12.32
2022-08-10T03:09:07.723Z,12.31
2022-08-10T03:12:35.923Z,12.30
2022-08-10T03:14:25.465Z,12.29
2022-08-10T03:16:54.643Z,12.29
2022-08-10T03:20:35.674Z,12.28
2022-08-10T03:22:11.875Z,12.26
2022-08-10T03:24:39.883Z,12.27
2022-08-10T03:27:08.067Z,12.28
2022-08-10T03:30:29.627Z,12.29
2022-08-10T03:32:24.223Z,12.31
2022-08-10T03:34:53.821Z,12.33
2022-08-10T03:37:21.699Z,12.36
2022-08-10T03:39:51.351Z,12.39
2022-08-10T03:42:19.336Z,12.43
2022-08-10T03:44:50.540Z,12.49
2022-08-10T03:47:20.413Z,12.55
2022-08-10T03:49:48.955Z,12.61
2022-08-10T03:52:18.012Z,12.68
2022-08-10T03:54:45.932Z,12.76
2022-08-10T03:57:13.972Z,12.85
2022-08-10T03:59:41.757Z,12.93
2022-08-10T04:02:44.420Z,13.02
2022-08-10T04:04:57.309Z,13.11
2022-08-10T04:07:25.074Z,13.20
2022-08-10T04:09:55.021Z,13.29
2022-08-10T04:12:24.532Z,13.38
2022-08-10T04:14:53.689Z,13.49
2022-08-10T04:18:02.940Z,13.61
2022-08-10T04:20:19.543Z,13.78
2022-08-10T04:22:51.712Z,13.93
2022-08-10T04:25:21.427Z,14.07
2022-08-10T04:27:49.939Z,14.23
2022-08-10T04:30:17.780Z,14.36
2022-08-10T04:32:47.802Z,14.50
2022-08-10T04:35:19.350Z,14.65
2022-08-10T04:37:48.816Z,14.82
2022-08-10T04:40:28.354Z,14.96
2022-08-10T04:43:02.440Z,15.09
2022-08-10T04:45:48.612Z,15.21
2022-08-10T04:48:43.295Z,15.33
2022-08-10T04:51:17.602Z,15.53
2022-08-10T04:54:05.273Z,15.70
2022-08-10T04:56:36.813Z,15.89
2022-08-10T04:59:09.690Z,16.05
2022-08-10T05:02:22.664Z,16.20
2022-08-10T05:04:36.278Z,16.35
2022-08-10T05:07:16.671Z,16.52
2022-08-10T05:10:01.474Z,16.65
2022-08-10T05:12:36.911Z,16.82
2022-08-10T05:15:12.481Z,16.98
2022-08-10T05:18:03.280Z,17.13
2022-08-10T05:20:29.362Z,17.26
2022-08-10T05:22:57.460Z,17.37
2022-08-10T05:25:24.966Z,17.48
2022-08-10T05:27:52.638Z,17.62
2022-08-10T05:30:21.808Z,17.75
2022-08-10T05:32:55.294Z,17.83
2022-08-10T05:35:26.474Z,17.94
2022-08-10T05:38:09.004Z,18.10
2022-08-10T05:40:42.602Z,18.24
2022-08-10T05:43:17.211Z,18.42
2022-08-10T05:46:19.635Z,18.60
2022-08-10T05:48:41.560Z,18.87
2022-08-10T05:51:22.813Z,19.12
2022-08-10T05:54:01.983Z,19.33
2022-08-10T05:56:54.798Z,19.57
2022-08-10T06:00:30.970Z,19.71
2022-08-10T06:02:32.897Z,19.79
2022-08-10T06:04:55.776Z,19.97
2022-08-10T06:07:23.507Z,20.14
2022-08-10T06:09:59.379Z,20.32
2022-08-10T06:12:30.659Z,20.45
2022-08-10T06:15:06.014Z,20.50
2022-08-10T06:17:37.751Z,20.57
2022-08-10T06:20:05.939Z,20.62
2022-08-10T06:22:33.805Z,20.75
2022-08-10T06:27:49.377Z,20.94
2022-08-10T06:30:20.011Z,21.02
2022-08-10T06:32:51.967Z,21.18
2022-08-10T06:35:19.545Z,21.32
2022-08-10T06:37:51.529Z,21.47
2022-08-10T06:40:20.162Z,21.57
2022-08-10T06:42:48.482Z,21.62
2022-08-10T06:45:17.009Z,21.77
2022-08-10T06:47:51.872Z,21.82
2022-08-10T06:50:34.994Z,21.92
2022-08-10T06:53:14.560Z,22.06
2022-08-10T06:55:55.437Z,22.18
2022-08-10T06:58:26.900Z,22.33
2022-08-10T07:00:55.109Z,22.49
2022-08-10T07:03:23.872Z,22.66
2022-08-10T07:05:51.572Z,22.81
2022-08-10T07:08:19.943Z,22.88
2022-08-10T07:10:47.706Z,22.92
2022-08-10T07:13:15.908Z,22.87
2022-08-10T07:16:04.392Z,22.96
2022-08-10T07:18:31.951Z,23.00
2022-08-10T07:21:01.987Z,22.98
2022-08-10T07:23:57.923Z,23.10
2022-08-10T07:26:18.291Z,23.28
2022-08-10T07:28:48.072Z,23.34
2022-08-10T07:31:54.421Z,23.40
2022-08-10T07:34:06.681Z,23.50
2022-08-10T07:36:34.906Z,23.72
2022-08-10T07:39:03.008Z,24.02
2022-08-10T07:41:32.061Z,24.23
2022-08-10T07:44:00.057Z,24.09
2022-08-10T07:46:27.700Z,23.88
2022-08-10T07:48:59.059Z,23.86
2022-08-10T07:51:26.681Z,24.19
2022-08-10T07:53:54.294Z,24.50
2022-08-10T07:56:47.245Z,24.53
2022-08-10T07:59:11.044Z,24.58
2022-08-10T08:01:50.389Z,24.65
2022-08-10T08:04:18.797Z,25.01
2022-08-10T08:06:46.887Z,25.41
2022-08-10T08:09:14.585Z,25.67
2022-08-10T08:11:43.313Z,25.77
2022-08-10T08:14:11.550Z,25.83
2022-08-10T08:16:40.887Z,25.77
2022-08-10T08:19:26.851Z,25.56
2022-08-10T08:24:15.034Z,25.42
2022-08-10T08:24:44.474Z,25.61
2022-08-10T08:27:16.899Z,25.72
2022-08-10T08:29:46.737Z,25.43
2022-08-10T08:32:22.671Z,25.08
2022-08-10T08:34:57.982Z,25.00
2022-08-10T08:38:30.471Z,25.11
2022-08-10T08:40:17.318Z,25.20
2022-08-10T08:42:48.852Z,25.35
2022-08-10T08:45:35.489Z,25.62
2022-08-10T08:48:14.981Z,25.78
2022-08-10T08:50:57.353Z,26.05
2022-08-10T08:54:02.267Z,26.35
2022-08-10T08:56:25.493Z,26.81
2022-08-10T08:58:58.903Z,27.07
2022-08-10T09:01:40.231Z,27.38
2022-08-10T09:04:27.787Z,27.72
2022-08-10T09:08:00.393Z,28.73
2022-08-10T09:10:13.808Z,31.60
2022-08-10T09:12:50.707Z,33.87
2022-08-10T09:15:39.532Z,33.68
2022-08-10T09:18:11.432Z,34.01
2022-08-10T09:20:54.099Z,33.59
2022-08-10T09:24:01.398Z,33.08
2022-08-10T09:26:33.822Z,35.61
2022-08-10T09:29:12.734Z,36.74
2022-08-10T09:31:55.820Z,40.57
2022-08-10T09:36:24.759Z,45.02
2022-08-10T09:37:42.541Z,48.58
2022-08-10T09:41:00.449Z,50.97
2022-08-10T09:43:25.306Z,52.54
2022-08-10T09:46:13.000Z,52.43
2022-08-10T09:48:50.333Z,52.68
2022-08-10T09:51:44.396Z,52.99
2022-08-10T09:54:14.390Z,50.94
2022-08-10T09:57:24.568Z,53.24
2022-08-10T10:00:01.955Z,55.19
2022-08-10T10:02:55.542Z,57.29
2022-08-10T10:05:24.753Z,59.27
2022-08-10T10:08:06.413Z,60.90
2022-08-10T10:10:36.464Z,62.09
2022-08-10T10:13:18.117Z,62.74
2022-08-10T10:16:05.622Z,63.54
2022-08-10T10:18:40.580Z,63.53
2022-08-10T10:21:24.064Z,61.54
2022-08-10T10:24:22.980Z,55.79
2022-08-10T10:26:50.678Z,50.97
2022-08-10T10:29:58.629Z,47.81
2022-08-10T10:32:36.786Z,44.48
2022-08-10T10:35:24.675Z,42.16
2022-08-10T10:38:01.200Z,40.06
2022-08-10T10:40:45.536Z,38.35
2022-08-10T10:43:19.831Z,36.77
2022-08-10T10:45:50.964Z,36.57
2022-08-10T10:48:24.099Z,40.03
2022-08-10T10:51:07.171Z,44.19
2022-08-10T10:53:44.521Z,47.11
2022-08-10T10:56:15.415Z,48.62
2022-08-10T10:58:43.716Z,49.72
2022-08-10T11:01:18.718Z,50.50
2022-08-10T11:03:59.177Z,49.52
2022-08-10T11:06:45.663Z,46.47
2022-08-10T11:10:05.450Z,43.54
2022-08-10T11:12:19.731Z,40.98
2022-08-10T11:15:23.346Z,39.11
2022-08-10T11:18:17.400Z,37.34
2022-08-10T11:20:52.221Z,36.01
2022-08-10T11:23:37.138Z,36.21
2022-08-10T11:26:04.729Z,37.37
2022-08-10T11:29:03.746Z,37.45
2022-08-10T11:31:45.277Z,36.99
2022-08-10T11:34:46.792Z,35.87
2022-08-10T11:37:03.780Z,34.33
2022-08-10T11:39:34.903Z,32.99
2022-08-10T11:42:19.135Z,32.05
2022-08-10T11:44:54.114Z,31.10
2022-08-10T11:47:41.892Z,30.39
2022-08-10T11:50:31.779Z,29.69
2022-08-10T11:53:05.618Z,29.10
2022-08-10T11:55:33.696Z,28.70
2022-08-10T11:58:27.566Z,28.62
2022-08-10T12:01:02.139Z,28.72
2022-08-10T12:03:35.012Z,28.42
2022-08-10T12:06:03.038Z,28.20
2022-08-10T12:10:05.208Z,28.25
2022-08-10T12:11:24.632Z,28.39
2022-08-10T12:14:19.763Z,28.45
2022-08-10T12:16:45.380Z,28.32
2022-08-10T12:19:21.064Z,28.33
2022-08-10T12:21:54.063Z,28.47
2022-08-10T12:24:21.665Z,28.53
2022-08-10T12:26:56.252Z,28.68
2022-08-10T12:29:29.953Z,28.51
2022-08-10T12:32:07.865Z,28.27
2022-08-10T12:34:54.400Z,28.32
2022-08-10T12:37:40.637Z,28.32
2022-08-10T12:44:04.524Z,27.83
2022-08-10T12:45:57.455Z,27.83
2022-08-10T12:48:31.212Z,28.44
2022-08-10T12:51:06.888Z,28.75
2022-08-10T12:53:40.507Z,28.56
2022-08-10T12:56:08.571Z,28.63
2022-08-10T12:58:59.134Z,28.77
2022-08-10T13:02:06.218Z,28.42
2022-08-10T13:04:29.050Z,28.00
2022-08-10T13:06:57.796Z,27.57
2022-08-10T13:09:26.196Z,27.14
2022-08-10T13:12:35.583Z,26.67
2022-08-10T13:14:48.833Z,26.30
2022-08-10T13:17:21.474Z,26.13
2022-08-10T13:19:55.446Z,25.98
2022-08-10T13:22:25.706Z,25.85
2022-08-10T13:24:55.869Z,25.80
2022-08-10T13:28:01.466Z,25.83
2022-08-10T13:30:16.242Z,25.88
2022-08-10T13:32:48.498Z,25.85
2022-08-10T13:35:19.578Z,25.87
2022-08-10T13:37:47.467Z,25.94
2022-08-10T13:40:16.336Z,25.99
2022-08-10T13:42:44.288Z,26.11
2022-08-10T13:45:14.754Z,26.24
2022-08-10T13:47:49.676Z,26.36
2022-08-10T13:50:20.453Z,26.54
2022-08-10T13:52:51.056Z,26.74
2022-08-10T13:55:21.306Z,26.91
2022-08-10T13:57:49.492Z,26.88
2022-08-10T14:00:34.596Z,27.02
2022-08-10T14:03:06.300Z,26.98
2022-08-10T14:05:35.341Z,27.19
2022-08-10T14:08:03.212Z,27.19
2022-08-10T14:11:08.569Z,27.13
2022-08-10T14:13:25.338Z,27.09
2022-08-10T14:15:53.443Z,26.92
2022-08-10T14:18:21.463Z,26.69
2022-08-10T14:20:49.143Z,26.43
2022-08-10T14:23:16.734Z,26.22
2022-08-10T14:25:49.415Z,26.05
2022-08-10T14:28:18.564Z,25.90
2022-08-10T14:30:49.259Z,25.86
2022-08-10T14:33:16.868Z,25.86
2022-08-10T14:36:21.465Z,25.78
2022-08-10T14:38:33.613Z,25.76
2022-08-10T14:41:01.912Z,25.86
2022-08-10T14:43:38.578Z,26.02
2022-08-10T14:46:17.361Z,26.24
2022-08-10T14:48:47.848Z,26.38
2022-08-10T14:51:19.254Z,26.45
2022-08-10T14:53:50.907Z,26.35
2022-08-10T14:56:24.391Z,26.41
2022-08-10T14:58:59.126Z,26.54
2022-08-10T15:02:00.000Z,26.67
2022-08-10T15:04:26.863Z,26.82
2022-08-10T15:07:12.127Z,27.11
2022-08-10T15:10:00.373Z,27.36
2022-08-10T15:12:33.403Z,27.50
2022-08-10T15:15:01.306Z,27.85
2022-08-10T15:17:29.889Z,28.10
2022-08-10T15:20:14.362Z,28.11
2022-08-10T15:22:45.695Z,28.19
2022-08-10T15:25:19.194Z,27.84
2022-08-10T15:27:54.378Z,27.40
2022-08-10T15:30:29.962Z,26.90
2022-08-10T15:33:21.193Z,26.49
2022-08-10T15:36:25.473Z,26.05
2022-08-10T15:40:26.041Z,25.79
2022-08-10T15:42:11.319Z,25.52
2022-08-10T15:44:39.932Z,25.35
2022-08-10T15:47:21.460Z,25.25
2022-08-10T15:49:53.660Z,25.19
2022-08-10T15:52:39.524Z,25.10
2022-08-10T15:55:42.883Z,25.07
2022-08-10T15:58:07.688Z,25.04
2022-08-10T16:00:37.749Z,25.02
2022-08-10T16:03:24.945Z,25.09
2022-08-10T16:06:02.541Z,25.14
2022-08-10T16:08:56.374Z,25.12
2022-08-10T16:11:37.767Z,25.15
2022-08-10T16:14:13.680Z,25.10
2022-08-10T16:16:41.946Z,25.03
2022-08-10T16:19:22.394Z,24.96
2022-08-10T16:21:56.605Z,24.90
2022-08-10T16:24:24.481Z,24.85
2022-08-10T16:26:52.548Z,24.83
2022-08-10T16:29:21.903Z,24.78
2022-08-10T16:31:51.729Z,24.72
2022-08-10T16:34:19.319Z,24.63
2022-08-10T16:36:56.854Z,24.55
2022-08-10T16:39:57.987Z,24.47
2022-08-10T16:42:17.764Z,24.37
2022-08-10T16:44:57.305Z,24.24
2022-08-10T16:47:27.497Z,24.13
2022-08-10T16:49:56.007Z,24.01
2022-08-10T16:52:29.272Z,23.94
2022-08-10T16:54:57.611Z,23.91
2022-08-10T16:57:26.589Z,23.86
2022-08-10T16:59:54.163Z,23.80
2022-08-10T17:02:21.784Z,23.73
2022-08-10T17:06:01.706Z,23.66
2022-08-10T17:08:10.473Z,23.48
2022-08-10T17:10:38.116Z,23.35
2022-08-10T17:13:06.248Z,23.23
2022-08-10T17:15:34.255Z,23.10
2022-08-10T17:18:02.931Z,22.96
2022-08-10T17:20:32.870Z,22.82
2022-08-10T17:23:01.771Z,22.69
2022-08-10T17:25:48.309Z,22.55
2022-08-10T17:28:35.554Z,22.42
2022-08-10T17:31:23.555Z,22.30
2022-08-10T17:33:59.987Z,22.17
2022-08-10T17:36:33.492Z,22.04
2022-08-10T17:39:01.025Z,21.91
2022-08-10T17:41:29.517Z,21.77
2022-08-10T17:44:03.047Z,21.62
2022-08-10T17:46:32.398Z,21.48
2022-08-10T17:49:00.470Z,21.35
2022-08-10T17:51:30.924Z,21.21
2022-08-10T17:53:58.933Z,21.06
2022-08-10T17:56:26.595Z,20.92
2022-08-10T17:58:56.536Z,20.79
2022-08-10T18:01:40.711Z,20.64
2022-08-10T18:04:13.301Z,20.47
2022-08-10T18:06:41.341Z,20.30
2022-08-10T18:09:11.436Z,20.16
2022-08-10T18:11:42.693Z,20.01
2022-08-10T18:14:10.281Z,19.87
2022-08-10T18:16:41.819Z,19.74
2022-08-10T18:19:12.057Z,19.59
2022-08-10T18:21:40.409Z,19.45
2022-08-10T18:24:27.162Z,19.32
2022-08-10T18:26:54.725Z,19.19
2022-08-10T18:29:24.803Z,19.07
2022-08-10T18:31:56.572Z,18.95
2022-08-10T18:34:24.156Z,18.82
2022-08-10T18:36:52.168Z,18.70
2022-08-10T18:39:29.989Z,18.59
2022-08-10T18:42:04.975Z,18.47
2022-08-10T18:44:37.419Z,18.32
2022-08-10T18:47:07.030Z,18.19
2022-08-10T18:49:37.576Z,18.06
2022-08-10T18:52:08.616Z,17.94
2022-08-10T18:54:39.489Z,17.83
2022-08-10T18:57:22.735Z,17.72
2022-08-10T19:00:03.599Z,17.62
2022-08-10T19:02:36.067Z,17.50
2022-08-10T19:05:30.218Z,17.41
2022-08-10T19:08:30.074Z,17.28
2022-08-10T19:10:58.580Z,17.18
2022-08-10T19:13:32.766Z,17.11
2022-08-10T19:16:09.316Z,17.01
2022-08-10T19:18:46.862Z,16.91
2022-08-10T19:21:17.366Z,16.78
2022-08-10T19:23:53.813Z,16.67
2022-08-10T19:26:44.270Z,16.59
2022-08-10T19:30:11.666Z,16.49
2022-08-10T19:32:21.061Z,16.41
2022-08-10T19:35:07.254Z,16.34
2022-08-10T19:37:37.502Z,16.27
2022-08-10T19:40:06.209Z,16.20
2022-08-10T19:42:48.678Z,16.13
2022-08-10T19:45:55.878Z,16.05
2022-08-10T19:48:26.116Z,15.97
2022-08-10T19:50:56.317Z,15.91
2022-08-10T19:53:36.067Z,15.84
2022-08-10T19:56:32.700Z,15.76
2022-08-10T19:59:03.425Z,15.69
2022-08-10T20:01:54.478Z,15.63
2022-08-10T20:04:22.863Z,15.57
2022-08-10T20:07:14.374Z,15.51
2022-08-10T20:10:02.477Z,15.47
2022-08-10T20:12:48.271Z,15.41
2022-08-10T20:15:21.065Z,15.37
2022-08-10T20:17:55.265Z,15.34
2022-08-10T20:20:29.174Z,15.30
2022-08-10T20:23:10.238Z,15.29
2022-08-10T20:25:38.134Z,15.26
2022-08-10T20:28:13.439Z,15.25
2022-08-10T20:30:55.998Z,15.22
2022-08-10T20:33:28.348Z,15.17
2022-08-10T20:36:25.398Z,15.13
2022-08-10T20:39:11.692Z,15.10
2022-08-10T20:42:06.172Z,15.06
2022-08-10T20:44:53.859Z,15.05
2022-08-10T20:47:24.338Z,15.02
2022-08-10T20:50:10.955Z,15.01
2022-08-10T20:52:38.562Z,14.98
2022-08-10T20:55:08.635Z,14.95
2022-08-10T20:57:54.709Z,14.90
2022-08-10T21:00:24.588Z,14.87
2022-08-10T21:03:15.884Z,14.84
2022-08-10T21:05:54.816Z,14.80
2022-08-10T21:08:30.763Z,14.77
2022-08-10T21:11:12.058Z,14.74
2022-08-10T21:13:58.318Z,14.71
2022-08-10T21:16:47.342Z,14.67
2022-08-10T21:19:34.110Z,14.62
2022-08-10T21:22:01.771Z,14.55
2022-08-10T21:24:31.770Z,14.53
2022-08-10T21:27:33.590Z,14.50
2022-08-10T21:30:11.256Z,14.45
2022-08-10T21:32:51.217Z,14.38
2022-08-10T21:35:36.633Z,14.32
2022-08-10T21:38:28.462Z,14.26
2022-08-10T21:41:17.615Z,14.18
2022-08-10T21:44:05.061Z,14.11
2022-08-10T21:46:55.335Z,14.04
2022-08-10T21:49:45.426Z,13.97
2022-08-10T21:52:39.188Z,13.91
2022-08-10T21:55:57.450Z,13.84
2022-08-10T21:58:45.170Z,13.78
2022-08-10T22:01:39.488Z,13.72
2022-08-10T22:04:26.730Z,13.66
2022-08-10T22:07:12.974Z,13.60
2022-08-10T22:10:01.680Z,13.54
2022-08-10T22:13:00.051Z,13.47
2022-08-10T22:16:10.718Z,13.44
2022-08-10T22:19:01.836Z,13.41
2022-08-10T22:21:53.187Z,13.40
2022-08-10T22:24:41.310Z,13.38
2022-08-10T22:27:47.091Z,13.38
2022-08-10T22:30:43.823Z,13.38
2022-08-10T22:33:36.834Z,13.37
2022-08-10T22:36:22.873Z,13.37
2022-08-10T22:39:13.436Z,13.38
2022-08-10T22:42:32.334Z,13.38
2022-08-10T22:45:38.759Z,13.35
2022-08-10T22:48:25.535Z,13.34
2022-08-10T22:50:54.508Z,13.31
2022-08-10T22:53:47.320Z,13.29
2022-08-10T22:56:36.350Z,13.27
2022-08-10T22:59:04.639Z,13.25
2022-08-10T23:02:07.858Z,13.25
2022-08-10T23:04:52.810Z,13.23
2022-08-10T23:07:21.849Z,13.22
2022-08-10T23:09:57.569Z,13.21
2022-08-10T23:12:29.773Z,13.19
2022-08-10T23:15:16.548Z,13.17
2022-08-10T23:18:06.555Z,13.15
2022-08-10T23:20:35.358Z,13.15
2022-08-10T23:23:07.565Z,13.13
2022-08-10T23:25:56.234Z,13.10
2022-08-10T23:28:58.112Z,13.06
2022-08-10T23:31:13.944Z,13.03
2022-08-10T23:33:41.483Z,13.01
2022-08-10T23:36:34.656Z,13.00
2022-08-10T23:39:26.526Z,12.99
2022-08-10T23:41:46.727Z,12.98
2022-08-10T23:44:21.232Z,12.96
2022-08-10T23:46:48.860Z,12.95
2022-08-10T23:49:16.411Z,12.93
2022-08-10T23:51:56.281Z,12.90
2022-08-10T23:54:24.899Z,12.89
2022-08-10T23:57:01.089Z,12.88
2022-08-10T23:59:29.749Z,12.85
